sensor_id;sensor_type;location;lat;lon;timestamp;P1;durP1;ratioP1;P2;durP2;ratioP2
53959;SDS011;39866;48.638;-2.020;2024-03-02T00:00:05;6.45;;;5.43;;
53959;SDS011;39866;48.638;-2.020;2024-03-02T00:02:46;6.28;;;5.07;;
53959;SDS011;39866;48.638;-2.020;2024-03-02T00:05:18;5.63;;;5.00;;
53959;SDS011;39866;48.638;-2.020;2024-03-02T00:07:47;5.65;;;5.07;;
53959;SDS011;39866;48.638;-2.020;2024-03-02T00:10:20;6.28;;;5.43;;
53959;SDS011;39866;48.638;-2.020;2024-03-02T00:12:54;7.45;;;4.72;;
53959;SDS011;39866;48.638;-2.020;2024-03-02T00:18:04;6.13;;;4.75;;
53959;SDS011;39866;48.638;-2.020;2024-03-02T00:20:29;5.50;;;4.97;;
53959;SDS011;39866;48.638;-2.020;2024-03-02T00:23:02;5.05;;;4.50;;
53959;SDS011;39866;48.638;-2.020;2024-03-02T00:25:43;6.68;;;5.20;;
53959;SDS011;39866;48.638;-2.020;2024-03-02T00:28:20;5.03;;;4.53;;
53959;SDS011;39866;48.638;-2.020;2024-03-02T00:30:56;6.20;;;4.97;;
53959;SDS011;39866;48.638;-2.020;2024-03-02T00:33:22;6.70;;;4.88;;
53959;SDS011;39866;48.638;-2.020;2024-03-02T00:35:49;9.35;;;5.05;;
53959;SDS011;39866;48.638;-2.020;2024-03-02T00:38:14;7.13;;;5.20;;
53959;SDS011;39866;48.638;-2.020;2024-03-02T00:40:41;7.63;;;5.38;;
53959;SDS011;39866;48.638;-2.020;2024-03-02T00:46:11;6.50;;;5.00;;
53959;SDS011;39866;48.638;-2.020;2024-03-02T00:48:38;6.43;;;4.88;;
53959;SDS011;39866;48.638;-2.020;2024-03-02T00:51:09;6.65;;;5.30;;
53959;SDS011;39866;48.638;-2.020;2024-03-02T00:53:34;6.28;;;4.90;;
53959;SDS011;39866;48.638;-2.020;2024-03-02T00:56:00;6.85;;;5.15;;
53959;SDS011;39866;48.638;-2.020;2024-03-02T00:58:26;6.40;;;4.80;;
53959;SDS011;39866;48.638;-2.020;2024-03-02T01:00:51;7.78;;;5.18;;
53959;SDS011;39866;48.638;-2.020;2024-03-02T01:03:16;7.55;;;5.43;;
53959;SDS011;39866;48.638;-2.020;2024-03-02T01:05:42;8.20;;;5.95;;
53959;SDS011;39866;48.638;-2.020;2024-03-02T01:08:08;6.03;;;5.25;;
53959;SDS011;39866;48.638;-2.020;2024-03-02T01:10:34;7.75;;;5.30;;
53959;SDS011;39866;48.638;-2.020;2024-03-02T01:13:00;8.90;;;5.53;;
53959;SDS011;39866;48.638;-2.020;2024-03-02T01:15:25;9.02;;;5.18;;
53959;SDS011;39866;48.638;-2.020;2024-03-02T01:17:51;6.65;;;5.50;;
53959;SDS011;39866;48.638;-2.020;2024-03-02T01:20:16;9.43;;;5.25;;
53959;SDS011;39866;48.638;-2.020;2024-03-02T01:22:42;9.95;;;5.45;;
53959;SDS011;39866;48.638;-2.020;2024-03-02T01:25:08;7.78;;;5.18;;
53959;SDS011;39866;48.638;-2.020;2024-03-02T01:27:33;8.57;;;5.35;;
53959;SDS011;39866;48.638;-2.020;2024-03-02T01:29:59;10.02;;;5.43;;
53959;SDS011;39866;48.638;-2.020;2024-03-02T01:32:24;9.55;;;5.68;;
53959;SDS011;39866;48.638;-2.020;2024-03-02T01:34:50;9.05;;;6.22;;
53959;SDS011;39866;48.638;-2.020;2024-03-02T01:37:15;8.85;;;5.53;;
53959;SDS011;39866;48.638;-2.020;2024-03-02T01:39:41;9.02;;;5.82;;
53959;SDS011;39866;48.638;-2.020;2024-03-02T01:42:06;10.65;;;5.60;;
53959;SDS011;39866;48.638;-2.020;2024-03-02T01:44:31;7.80;;;5.03;;
53959;SDS011;39866;48.638;-2.020;2024-03-02T01:46:57;8.88;;;5.38;;
53959;SDS011;39866;48.638;-2.020;2024-03-02T01:49:22;7.90;;;5.25;;
53959;SDS011;39866;48.638;-2.020;2024-03-02T01:51:47;8.88;;;5.25;;
53959;SDS011;39866;48.638;-2.020;2024-03-02T01:54:13;9.45;;;5.53;;
53959;SDS011;39866;48.638;-2.020;2024-03-02T01:56:38;9.82;;;5.85;;
53959;SDS011;39866;48.638;-2.020;2024-03-02T01:59:04;6.82;;;4.60;;
53959;SDS011;39866;48.638;-2.020;2024-03-02T02:01:29;8.02;;;5.35;;
53959;SDS011;39866;48.638;-2.020;2024-03-02T02:03:56;7.75;;;4.40;;
53959;SDS011;39866;48.638;-2.020;2024-03-02T02:06:21;8.63;;;5.38;;
53959;SDS011;39866;48.638;-2.020;2024-03-02T02:08:47;8.55;;;4.63;;
53959;SDS011;39866;48.638;-2.020;2024-03-02T02:11:14;8.25;;;4.68;;
53959;SDS011;39866;48.638;-2.020;2024-03-02T02:13:40;9.18;;;5.22;;
53959;SDS011;39866;48.638;-2.020;2024-03-02T02:16:06;7.03;;;4.68;;
53959;SDS011;39866;48.638;-2.020;2024-03-02T02:18:32;9.65;;;5.40;;
53959;SDS011;39866;48.638;-2.020;2024-03-02T02:20:57;10.68;;;5.20;;
53959;SDS011;39866;48.638;-2.020;2024-03-02T02:23:23;7.32;;;4.78;;
53959;SDS011;39866;48.638;-2.020;2024-03-02T02:25:48;7.80;;;5.38;;
53959;SDS011;39866;48.638;-2.020;2024-03-02T02:28:13;7.70;;;5.10;;
53959;SDS011;39866;48.638;-2.020;2024-03-02T02:30:39;9.90;;;6.13;;
53959;SDS011;39866;48.638;-2.020;2024-03-02T02:33:04;6.20;;;4.50;;
53959;SDS011;39866;48.638;-2.020;2024-03-02T02:35:29;5.28;;;4.70;;
53959;SDS011;39866;48.638;-2.020;2024-03-02T02:37:55;7.13;;;4.80;;
53959;SDS011;39866;48.638;-2.020;2024-03-02T02:40:22;5.28;;;4.30;;
53959;SDS011;39866;48.638;-2.020;2024-03-02T02:42:47;7.20;;;5.35;;
53959;SDS011;39866;48.638;-2.020;2024-03-02T02:45:13;5.60;;;4.97;;
53959;SDS011;39866;48.638;-2.020;2024-03-02T02:47:40;7.50;;;5.20;;
53959;SDS011;39866;48.638;-2.020;2024-03-02T02:50:09;5.30;;;4.18;;
53959;SDS011;39866;48.638;-2.020;2024-03-02T02:52:36;4.45;;;3.80;;
53959;SDS011;39866;48.638;-2.020;2024-03-02T02:55:04;5.65;;;4.53;;
53959;SDS011;39866;48.638;-2.020;2024-03-02T02:57:31;6.18;;;4.93;;
53959;SDS011;39866;48.638;-2.020;2024-03-02T03:00:01;4.70;;;3.97;;
53959;SDS011;39866;48.638;-2.020;2024-03-02T03:02:30;5.35;;;4.63;;
53959;SDS011;39866;48.638;-2.020;2024-03-02T03:04:55;6.38;;;4.60;;
53959;SDS011;39866;48.638;-2.020;2024-03-02T03:07:22;5.05;;;4.50;;
53959;SDS011;39866;48.638;-2.020;2024-03-02T03:09:47;7.70;;;4.15;;
53959;SDS011;39866;48.638;-2.020;2024-03-02T03:12:13;5.10;;;4.53;;
53959;SDS011;39866;48.638;-2.020;2024-03-02T03:14:40;4.57;;;4.18;;
53959;SDS011;39866;48.638;-2.020;2024-03-02T03:17:06;5.05;;;4.65;;
53959;SDS011;39866;48.638;-2.020;2024-03-02T03:19:33;6.57;;;4.50;;
53959;SDS011;39866;48.638;-2.020;2024-03-02T03:21:58;7.75;;;4.65;;
53959;SDS011;39866;48.638;-2.020;2024-03-02T03:24:24;5.05;;;4.35;;
53959;SDS011;39866;48.638;-2.020;2024-03-02T03:26:49;6.22;;;4.78;;
53959;SDS011;39866;48.638;-2.020;2024-03-02T03:29:14;5.22;;;4.75;;
53959;SDS011;39866;48.638;-2.020;2024-03-02T03:31:40;4.40;;;4.00;;
53959;SDS011;39866;48.638;-2.020;2024-03-02T03:34:05;5.05;;;4.40;;
53959;SDS011;39866;48.638;-2.020;2024-03-02T03:36:30;5.05;;;4.55;;
53959;SDS011;39866;48.638;-2.020;2024-03-02T03:38:55;5.93;;;5.18;;
53959;SDS011;39866;48.638;-2.020;2024-03-02T03:41:21;4.75;;;4.35;;
53959;SDS011;39866;48.638;-2.020;2024-03-02T03:43:46;4.20;;;3.80;;
53959;SDS011;39866;48.638;-2.020;2024-03-02T03:46:11;5.50;;;4.25;;
53959;SDS011;39866;48.638;-2.020;2024-03-02T03:48:37;5.20;;;4.72;;
53959;SDS011;39866;48.638;-2.020;2024-03-02T03:51:02;5.90;;;4.32;;
53959;SDS011;39866;48.638;-2.020;2024-03-02T03:53:27;4.80;;;3.95;;
53959;SDS011;39866;48.638;-2.020;2024-03-02T03:55:53;4.15;;;3.83;;
53959;SDS011;39866;48.638;-2.020;2024-03-02T03:58:18;4.72;;;4.30;;
53959;SDS011;39866;48.638;-2.020;2024-03-02T04:00:45;4.60;;;4.20;;
53959;SDS011;39866;48.638;-2.020;2024-03-02T04:03:11;5.13;;;4.05;;
53959;SDS011;39866;48.638;-2.020;2024-03-02T04:05:36;4.45;;;4.05;;
53959;SDS011;39866;48.638;-2.020;2024-03-02T04:08:01;5.35;;;4.00;;
53959;SDS011;39866;48.638;-2.020;2024-03-02T04:10:27;5.15;;;4.70;;
53959;SDS011;39866;48.638;-2.020;2024-03-02T04:12:52;4.43;;;3.80;;
53959;SDS011;39866;48.638;-2.020;2024-03-02T04:15:17;4.45;;;4.05;;
53959;SDS011;39866;48.638;-2.020;2024-03-02T04:17:43;4.90;;;4.05;;
53959;SDS011;39866;48.638;-2.020;2024-03-02T04:20:09;5.18;;;4.68;;
53959;SDS011;39866;48.638;-2.020;2024-03-02T04:22:37;5.32;;;4.88;;
53959;SDS011;39866;48.638;-2.020;2024-03-02T04:25:03;5.47;;;4.32;;
53959;SDS011;39866;48.638;-2.020;2024-03-02T04:27:29;4.85;;;3.72;;
53959;SDS011;39866;48.638;-2.020;2024-03-02T04:29:55;5.68;;;4.75;;
53959;SDS011;39866;48.638;-2.020;2024-03-02T04:32:20;5.85;;;4.47;;
53959;SDS011;39866;48.638;-2.020;2024-03-02T04:34:46;6.05;;;4.55;;
53959;SDS011;39866;48.638;-2.020;2024-03-02T04:37:11;4.22;;;3.28;;
53959;SDS011;39866;48.638;-2.020;2024-03-02T04:39:37;4.95;;;3.85;;
53959;SDS011;39866;48.638;-2.020;2024-03-02T04:42:03;5.90;;;4.03;;
53959;SDS011;39866;48.638;-2.020;2024-03-02T04:44:28;6.68;;;4.15;;
53959;SDS011;39866;48.638;-2.020;2024-03-02T04:46:53;6.70;;;5.00;;
53959;SDS011;39866;48.638;-2.020;2024-03-02T04:49:19;4.32;;;3.72;;
53959;SDS011;39866;48.638;-2.020;2024-03-02T04:51:44;4.43;;;3.92;;
53959;SDS011;39866;48.638;-2.020;2024-03-02T04:54:09;4.53;;;3.53;;
53959;SDS011;39866;48.638;-2.020;2024-03-02T04:56:35;4.78;;;3.88;;
53959;SDS011;39866;48.638;-2.020;2024-03-02T04:59:09;5.13;;;3.88;;
53959;SDS011;39866;48.638;-2.020;2024-03-02T05:01:35;5.90;;;4.15;;
53959;SDS011;39866;48.638;-2.020;2024-03-02T05:04:01;5.18;;;3.58;;
53959;SDS011;39866;48.638;-2.020;2024-03-02T05:06:27;4.28;;;3.65;;
53959;SDS011;39866;48.638;-2.020;2024-03-02T05:08:52;7.18;;;4.43;;
53959;SDS011;39866;48.638;-2.020;2024-03-02T05:11:17;4.88;;;3.80;;
53959;SDS011;39866;48.638;-2.020;2024-03-02T05:14:06;5.32;;;4.15;;
53959;SDS011;39866;48.638;-2.020;2024-03-02T05:16:37;4.57;;;4.10;;
53959;SDS011;39866;48.638;-2.020;2024-03-02T05:19:03;4.63;;;3.72;;
53959;SDS011;39866;48.638;-2.020;2024-03-02T05:21:30;6.70;;;4.55;;
53959;SDS011;39866;48.638;-2.020;2024-03-02T05:23:55;5.32;;;4.82;;
53959;SDS011;39866;48.638;-2.020;2024-03-02T05:26:20;5.55;;;4.35;;
53959;SDS011;39866;48.638;-2.020;2024-03-02T05:28:45;4.97;;;4.15;;
53959;SDS011;39866;48.638;-2.020;2024-03-02T05:31:11;4.38;;;3.75;;
53959;SDS011;39866;48.638;-2.020;2024-03-02T05:33:39;7.25;;;4.38;;
53959;SDS011;39866;48.638;-2.020;2024-03-02T05:36:05;5.28;;;4.40;;
53959;SDS011;39866;48.638;-2.020;2024-03-02T05:38:31;4.78;;;4.15;;
53959;SDS011;39866;48.638;-2.020;2024-03-02T05:40:57;4.75;;;3.97;;
53959;SDS011;39866;48.638;-2.020;2024-03-02T05:43:22;4.22;;;3.70;;
53959;SDS011;39866;48.638;-2.020;2024-03-02T05:45:47;4.72;;;4.00;;
53959;SDS011;39866;48.638;-2.020;2024-03-02T05:48:13;4.75;;;3.65;;
53959;SDS011;39866;48.638;-2.020;2024-03-02T05:50:38;6.55;;;4.20;;
53959;SDS011;39866;48.638;-2.020;2024-03-02T05:53:03;5.15;;;4.75;;
53959;SDS011;39866;48.638;-2.020;2024-03-02T05:55:29;6.93;;;5.03;;
53959;SDS011;39866;48.638;-2.020;2024-03-02T05:57:54;4.75;;;4.00;;
53959;SDS011;39866;48.638;-2.020;2024-03-02T06:00:31;4.10;;;3.70;;
53959;SDS011;39866;48.638;-2.020;2024-03-02T06:02:57;4.30;;;3.90;;
53959;SDS011;39866;48.638;-2.020;2024-03-02T06:05:22;5.90;;;4.40;;
53959;SDS011;39866;48.638;-2.020;2024-03-02T06:07:47;4.85;;;4.45;;
53959;SDS011;39866;48.638;-2.020;2024-03-02T06:10:13;4.70;;;4.10;;
53959;SDS011;39866;48.638;-2.020;2024-03-02T06:12:39;5.15;;;3.40;;
53959;SDS011;39866;48.638;-2.020;2024-03-02T06:15:04;4.40;;;3.95;;
53959;SDS011;39866;48.638;-2.020;2024-03-02T06:17:30;4.85;;;4.00;;
53959;SDS011;39866;48.638;-2.020;2024-03-02T06:19:55;4.38;;;3.90;;
53959;SDS011;39866;48.638;-2.020;2024-03-02T06:22:21;4.22;;;3.88;;
53959;SDS011;39866;48.638;-2.020;2024-03-02T06:24:48;4.75;;;4.10;;
53959;SDS011;39866;48.638;-2.020;2024-03-02T06:27:14;4.32;;;3.88;;
53959;SDS011;39866;48.638;-2.020;2024-03-02T06:29:39;4.95;;;3.67;;
53959;SDS011;39866;48.638;-2.020;2024-03-02T06:32:04;5.15;;;3.85;;
53959;SDS011;39866;48.638;-2.020;2024-03-02T06:34:30;3.80;;;3.45;;
53959;SDS011;39866;48.638;-2.020;2024-03-02T06:36:56;4.70;;;4.13;;
53959;SDS011;39866;48.638;-2.020;2024-03-02T06:39:21;4.65;;;4.20;;
53959;SDS011;39866;48.638;-2.020;2024-03-02T06:41:46;4.25;;;3.72;;
53959;SDS011;39866;48.638;-2.020;2024-03-02T06:44:12;4.68;;;4.25;;
53959;SDS011;39866;48.638;-2.020;2024-03-02T06:46:38;4.43;;;4.03;;
53959;SDS011;39866;48.638;-2.020;2024-03-02T06:49:03;4.18;;;3.78;;
53959;SDS011;39866;48.638;-2.020;2024-03-02T06:51:29;4.15;;;3.78;;
53959;SDS011;39866;48.638;-2.020;2024-03-02T06:53:54;3.55;;;3.25;;
53959;SDS011;39866;48.638;-2.020;2024-03-02T06:56:20;4.35;;;3.70;;
53959;SDS011;39866;48.638;-2.020;2024-03-02T06:58:45;4.60;;;4.00;;
53959;SDS011;39866;48.638;-2.020;2024-03-02T07:01:11;5.78;;;3.90;;
53959;SDS011;39866;48.638;-2.020;2024-03-02T07:03:37;5.82;;;4.22;;
53959;SDS011;39866;48.638;-2.020;2024-03-02T07:06:04;6.53;;;4.38;;
53959;SDS011;39866;48.638;-2.020;2024-03-02T07:08:29;5.85;;;4.47;;
53959;SDS011;39866;48.638;-2.020;2024-03-02T07:10:55;5.15;;;3.90;;
53959;SDS011;39866;48.638;-2.020;2024-03-02T07:13:21;5.90;;;3.80;;
53959;SDS011;39866;48.638;-2.020;2024-03-02T07:15:46;5.60;;;3.90;;
53959;SDS011;39866;48.638;-2.020;2024-03-02T07:18:44;4.95;;;3.78;;
53959;SDS011;39866;48.638;-2.020;2024-03-02T07:21:16;4.85;;;3.67;;
53959;SDS011;39866;48.638;-2.020;2024-03-02T07:23:41;8.45;;;4.82;;
53959;SDS011;39866;48.638;-2.020;2024-03-02T07:26:06;5.20;;;4.30;;
53959;SDS011;39866;48.638;-2.020;2024-03-02T07:28:32;5.50;;;4.35;;
53959;SDS011;39866;48.638;-2.020;2024-03-02T07:30:58;6.32;;;4.13;;
53959;SDS011;39866;48.638;-2.020;2024-03-02T07:33:24;5.38;;;3.45;;
53959;SDS011;39866;48.638;-2.020;2024-03-02T07:35:50;4.32;;;3.15;;
53959;SDS011;39866;48.638;-2.020;2024-03-02T07:38:15;3.45;;;3.13;;
53959;SDS011;39866;48.638;-2.020;2024-03-02T07:40:41;5.22;;;3.65;;
53959;SDS011;39866;48.638;-2.020;2024-03-02T07:43:07;4.30;;;3.90;;
53959;SDS011;39866;48.638;-2.020;2024-03-02T07:45:32;4.88;;;3.42;;
53959;SDS011;39866;48.638;-2.020;2024-03-02T07:47:58;4.50;;;3.95;;
53959;SDS011;39866;48.638;-2.020;2024-03-02T07:50:23;6.00;;;4.07;;
53959;SDS011;39866;48.638;-2.020;2024-03-02T07:52:48;4.53;;;4.00;;
53959;SDS011;39866;48.638;-2.020;2024-03-02T07:55:14;6.45;;;4.15;;
53959;SDS011;39866;48.638;-2.020;2024-03-02T07:57:39;4.68;;;3.60;;
53959;SDS011;39866;48.638;-2.020;2024-03-02T08:00:05;5.07;;;3.65;;
53959;SDS011;39866;48.638;-2.020;2024-03-02T08:02:31;5.28;;;3.53;;
53959;SDS011;39866;48.638;-2.020;2024-03-02T08:04:56;5.15;;;3.38;;
53959;SDS011;39866;48.638;-2.020;2024-03-02T08:07:22;4.40;;;3.75;;
53959;SDS011;39866;48.638;-2.020;2024-03-02T08:09:47;5.00;;;3.67;;
53959;SDS011;39866;48.638;-2.020;2024-03-02T08:12:13;5.95;;;3.85;;
53959;SDS011;39866;48.638;-2.020;2024-03-02T08:14:38;5.78;;;3.72;;
53959;SDS011;39866;48.638;-2.020;2024-03-02T08:17:03;5.88;;;3.80;;
53959;SDS011;39866;48.638;-2.020;2024-03-02T08:19:34;4.25;;;3.85;;
53959;SDS011;39866;48.638;-2.020;2024-03-02T08:22:00;4.47;;;3.67;;
53959;SDS011;39866;48.638;-2.020;2024-03-02T08:24:25;5.50;;;3.55;;
53959;SDS011;39866;48.638;-2.020;2024-03-02T08:26:50;6.45;;;3.80;;
53959;SDS011;39866;48.638;-2.020;2024-03-02T08:29:16;5.93;;;4.10;;
53959;SDS011;39866;48.638;-2.020;2024-03-02T08:31:41;5.57;;;3.40;;
53959;SDS011;39866;48.638;-2.020;2024-03-02T08:34:06;4.70;;;4.20;;
53959;SDS011;39866;48.638;-2.020;2024-03-02T08:36:32;5.03;;;3.63;;
53959;SDS011;39866;48.638;-2.020;2024-03-02T08:38:57;6.28;;;4.35;;
53959;SDS011;39866;48.638;-2.020;2024-03-02T08:41:22;6.82;;;4.10;;
53959;SDS011;39866;48.638;-2.020;2024-03-02T08:43:48;8.20;;;5.18;;
53959;SDS011;39866;48.638;-2.020;2024-03-02T08:46:13;8.38;;;4.90;;
53959;SDS011;39866;48.638;-2.020;2024-03-02T08:48:39;5.28;;;3.78;;
53959;SDS011;39866;48.638;-2.020;2024-03-02T08:51:04;5.47;;;4.32;;
53959;SDS011;39866;48.638;-2.020;2024-03-02T08:53:32;5.82;;;4.65;;
53959;SDS011;39866;48.638;-2.020;2024-03-02T08:55:58;6.20;;;4.90;;
53959;SDS011;39866;48.638;-2.020;2024-03-02T08:58:23;6.20;;;4.45;;
53959;SDS011;39866;48.638;-2.020;2024-03-02T09:00:48;7.07;;;4.82;;
53959;SDS011;39866;48.638;-2.020;2024-03-02T09:03:14;4.70;;;4.25;;
53959;SDS011;39866;48.638;-2.020;2024-03-02T09:05:39;7.82;;;4.90;;
53959;SDS011;39866;48.638;-2.020;2024-03-02T09:08:05;6.70;;;4.30;;
53959;SDS011;39866;48.638;-2.020;2024-03-02T09:10:30;5.88;;;4.50;;
53959;SDS011;39866;48.638;-2.020;2024-03-02T09:12:56;5.28;;;4.20;;
53959;SDS011;39866;48.638;-2.020;2024-03-02T09:15:21;6.35;;;4.57;;
53959;SDS011;39866;48.638;-2.020;2024-03-02T09:17:46;7.65;;;4.53;;
53959;SDS011;39866;48.638;-2.020;2024-03-02T09:20:12;8.32;;;4.93;;
53959;SDS011;39866;48.638;-2.020;2024-03-02T09:22:39;6.93;;;4.25;;
53959;SDS011;39866;48.638;-2.020;2024-03-02T09:25:04;10.35;;;5.30;;
53959;SDS011;39866;48.638;-2.020;2024-03-02T09:27:29;7.13;;;4.35;;
53959;SDS011;39866;48.638;-2.020;2024-03-02T09:29:55;8.60;;;4.88;;
53959;SDS011;39866;48.638;-2.020;2024-03-02T09:32:20;8.38;;;5.13;;
53959;SDS011;39866;48.638;-2.020;2024-03-02T09:34:45;9.68;;;5.00;;
53959;SDS011;39866;48.638;-2.020;2024-03-02T09:37:13;6.40;;;4.80;;
53959;SDS011;39866;48.638;-2.020;2024-03-02T09:39:38;9.20;;;5.35;;
53959;SDS011;39866;48.638;-2.020;2024-03-02T09:42:04;9.38;;;5.20;;
53959;SDS011;39866;48.638;-2.020;2024-03-02T09:44:29;6.72;;;4.72;;
53959;SDS011;39866;48.638;-2.020;2024-03-02T09:46:55;10.60;;;5.47;;
53959;SDS011;39866;48.638;-2.020;2024-03-02T09:49:20;10.25;;;5.30;;
53959;SDS011;39866;48.638;-2.020;2024-03-02T09:51:49;6.00;;;4.82;;
53959;SDS011;39866;48.638;-2.020;2024-03-02T09:54:17;8.02;;;4.90;;
53959;SDS011;39866;48.638;-2.020;2024-03-02T09:56:43;6.63;;;4.32;;
53959;SDS011;39866;48.638;-2.020;2024-03-02T09:59:09;8.65;;;5.13;;
53959;SDS011;39866;48.638;-2.020;2024-03-02T10:01:34;6.95;;;4.45;;
53959;SDS011;39866;48.638;-2.020;2024-03-02T10:04:00;6.38;;;4.68;;
53959;SDS011;39866;48.638;-2.020;2024-03-02T10:06:27;5.15;;;4.63;;
53959;SDS011;39866;48.638;-2.020;2024-03-02T10:08:54;5.55;;;4.97;;
53959;SDS011;39866;48.638;-2.020;2024-03-02T10:11:30;6.15;;;4.75;;
53959;SDS011;39866;48.638;-2.020;2024-03-02T10:16:33;12.07;;;5.80;;
53959;SDS011;39866;48.638;-2.020;2024-03-02T10:19:08;8.65;;;5.13;;
53959;SDS011;39866;48.638;-2.020;2024-03-02T10:21:40;9.77;;;5.28;;
53959;SDS011;39866;48.638;-2.020;2024-03-02T10:24:07;7.93;;;4.68;;
53959;SDS011;39866;48.638;-2.020;2024-03-02T10:26:32;6.70;;;4.60;;
53959;SDS011;39866;48.638;-2.020;2024-03-02T10:28:58;8.52;;;4.88;;
53959;SDS011;39866;48.638;-2.020;2024-03-02T10:31:24;7.40;;;4.32;;
53959;SDS011;39866;48.638;-2.020;2024-03-02T10:33:52;8.10;;;4.85;;
53959;SDS011;39866;48.638;-2.020;2024-03-02T10:36:22;9.55;;;5.43;;
53959;SDS011;39866;48.638;-2.020;2024-03-02T10:38:48;8.68;;;5.25;;
53959;SDS011;39866;48.638;-2.020;2024-03-02T10:41:19;7.13;;;4.57;;
53959;SDS011;39866;48.638;-2.020;2024-03-02T10:43:48;7.68;;;5.22;;
53959;SDS011;39866;48.638;-2.020;2024-03-02T10:46:13;7.53;;;4.30;;
53959;SDS011;39866;48.638;-2.020;2024-03-02T10:48:41;8.35;;;4.90;;
53959;SDS011;39866;48.638;-2.020;2024-03-02T10:51:10;10.43;;;5.00;;
53959;SDS011;39866;48.638;-2.020;2024-03-02T10:53:36;8.70;;;4.43;;
53959;SDS011;39866;48.638;-2.020;2024-03-02T10:56:01;8.05;;;3.90;;
53959;SDS011;39866;48.638;-2.020;2024-03-02T10:58:32;4.85;;;4.05;;
53959;SDS011;39866;48.638;-2.020;2024-03-02T11:01:02;8.52;;;4.82;;
53959;SDS011;39866;48.638;-2.020;2024-03-02T11:03:33;6.95;;;4.70;;
53959;SDS011;39866;48.638;-2.020;2024-03-02T11:06:00;7.93;;;4.68;;
53959;SDS011;39866;48.638;-2.020;2024-03-02T11:08:31;9.20;;;5.38;;
53959;SDS011;39866;48.638;-2.020;2024-03-02T11:10:58;10.25;;;5.13;;
53959;SDS011;39866;48.638;-2.020;2024-03-02T11:13:31;5.90;;;4.13;;
53959;SDS011;39866;48.638;-2.020;2024-03-02T11:16:09;7.22;;;4.60;;
53959;SDS011;39866;48.638;-2.020;2024-03-02T11:18:41;9.60;;;4.70;;
53959;SDS011;39866;48.638;-2.020;2024-03-02T11:21:07;5.60;;;4.38;;
53959;SDS011;39866;48.638;-2.020;2024-03-02T11:23:33;6.28;;;4.35;;
53959;SDS011;39866;48.638;-2.020;2024-03-02T11:26:19;8.27;;;4.78;;
53959;SDS011;39866;48.638;-2.020;2024-03-02T11:28:45;4.82;;;4.30;;
53959;SDS011;39866;48.638;-2.020;2024-03-02T11:31:11;5.10;;;4.10;;
53959;SDS011;39866;48.638;-2.020;2024-03-02T11:33:36;9.02;;;4.85;;
53959;SDS011;39866;48.638;-2.020;2024-03-02T11:36:02;6.82;;;4.95;;
53959;SDS011;39866;48.638;-2.020;2024-03-02T11:38:28;5.82;;;4.20;;
53959;SDS011;39866;48.638;-2.020;2024-03-02T11:40:55;8.82;;;5.38;;
53959;SDS011;39866;48.638;-2.020;2024-03-02T11:43:21;6.82;;;4.75;;
53959;SDS011;39866;48.638;-2.020;2024-03-02T11:45:46;7.70;;;5.38;;
53959;SDS011;39866;48.638;-2.020;2024-03-02T11:48:15;7.72;;;4.68;;
53959;SDS011;39866;48.638;-2.020;2024-03-02T11:50:47;6.95;;;5.18;;
53959;SDS011;39866;48.638;-2.020;2024-03-02T11:53:14;4.50;;;4.10;;
53959;SDS011;39866;48.638;-2.020;2024-03-02T11:55:40;5.72;;;5.13;;
53959;SDS011;39866;48.638;-2.020;2024-03-02T11:58:06;6.05;;;4.10;;
53959;SDS011;39866;48.638;-2.020;2024-03-02T12:00:33;5.75;;;4.38;;
53959;SDS011;39866;48.638;-2.020;2024-03-02T12:03:00;6.35;;;5.05;;
53959;SDS011;39866;48.638;-2.020;2024-03-02T12:05:31;7.15;;;4.55;;
53959;SDS011;39866;48.638;-2.020;2024-03-02T12:07:57;7.75;;;4.78;;
53959;SDS011;39866;48.638;-2.020;2024-03-02T12:10:24;8.32;;;4.45;;
53959;SDS011;39866;48.638;-2.020;2024-03-02T12:15:26;5.50;;;4.40;;
53959;SDS011;39866;48.638;-2.020;2024-03-02T12:17:55;5.53;;;4.57;;
53959;SDS011;39866;48.638;-2.020;2024-03-02T12:20:22;5.03;;;4.30;;
53959;SDS011;39866;48.638;-2.020;2024-03-02T12:22:52;8.85;;;4.70;;
53959;SDS011;39866;48.638;-2.020;2024-03-02T12:25:21;7.32;;;4.95;;
53959;SDS011;39866;48.638;-2.020;2024-03-02T12:27:49;7.18;;;4.70;;
53959;SDS011;39866;48.638;-2.020;2024-03-02T12:30:16;5.57;;;4.95;;
53959;SDS011;39866;48.638;-2.020;2024-03-02T12:32:42;4.97;;;4.20;;
53959;SDS011;39866;48.638;-2.020;2024-03-02T12:35:09;4.78;;;4.32;;
53959;SDS011;39866;48.638;-2.020;2024-03-02T12:37:46;5.38;;;4.47;;
53959;SDS011;39866;48.638;-2.020;2024-03-02T12:40:15;4.88;;;4.35;;
53959;SDS011;39866;48.638;-2.020;2024-03-02T12:42:45;4.70;;;4.30;;
53959;SDS011;39866;48.638;-2.020;2024-03-02T12:45:11;7.63;;;4.57;;
53959;SDS011;39866;48.638;-2.020;2024-03-02T12:47:38;7.15;;;4.28;;
53959;SDS011;39866;48.638;-2.020;2024-03-02T12:50:05;7.40;;;4.68;;
53959;SDS011;39866;48.638;-2.020;2024-03-02T12:52:31;5.32;;;4.78;;
53959;SDS011;39866;48.638;-2.020;2024-03-02T12:54:58;5.70;;;4.93;;
53959;SDS011;39866;48.638;-2.020;2024-03-02T12:57:31;5.18;;;4.55;;
53959;SDS011;39866;48.638;-2.020;2024-03-02T13:00:05;6.22;;;5.03;;
53959;SDS011;39866;48.638;-2.020;2024-03-02T13:02:35;9.15;;;5.47;;
53959;SDS011;39866;48.638;-2.020;2024-03-02T13:05:02;6.10;;;5.03;;
53959;SDS011;39866;48.638;-2.020;2024-03-02T13:07:27;8.88;;;5.50;;
53959;SDS011;39866;48.638;-2.020;2024-03-02T13:09:54;6.75;;;4.70;;
53959;SDS011;39866;48.638;-2.020;2024-03-02T13:12:21;6.53;;;5.35;;
53959;SDS011;39866;48.638;-2.020;2024-03-02T13:14:48;10.23;;;4.90;;
53959;SDS011;39866;48.638;-2.020;2024-03-02T13:17:15;5.13;;;4.72;;
53959;SDS011;39866;48.638;-2.020;2024-03-02T13:19:56;5.93;;;4.80;;
53959;SDS011;39866;48.638;-2.020;2024-03-02T13:22:23;5.88;;;5.25;;
53959;SDS011;39866;48.638;-2.020;2024-03-02T13:24:49;5.00;;;4.50;;
53959;SDS011;39866;48.638;-2.020;2024-03-02T13:27:15;6.03;;;4.82;;
53959;SDS011;39866;48.638;-2.020;2024-03-02T13:29:44;7.63;;;5.22;;
53959;SDS011;39866;48.638;-2.020;2024-03-02T13:32:09;8.13;;;5.47;;
53959;SDS011;39866;48.638;-2.020;2024-03-02T13:34:35;5.40;;;4.70;;
53959;SDS011;39866;48.638;-2.020;2024-03-02T13:37:02;8.02;;;5.40;;
53959;SDS011;39866;48.638;-2.020;2024-03-02T13:39:27;6.75;;;4.90;;
53959;SDS011;39866;48.638;-2.020;2024-03-02T13:41:55;6.45;;;5.53;;
53959;SDS011;39866;48.638;-2.020;2024-03-02T13:44:28;7.82;;;5.28;;
53959;SDS011;39866;48.638;-2.020;2024-03-02T13:46:53;5.53;;;4.95;;
53959;SDS011;39866;48.638;-2.020;2024-03-02T13:49:19;7.43;;;5.22;;
53959;SDS011;39866;48.638;-2.020;2024-03-02T13:51:44;5.50;;;4.65;;
53959;SDS011;39866;48.638;-2.020;2024-03-02T13:54:10;6.32;;;4.75;;
53959;SDS011;39866;48.638;-2.020;2024-03-02T13:56:36;6.10;;;4.38;;
53959;SDS011;39866;48.638;-2.020;2024-03-02T13:59:04;6.60;;;4.50;;
53959;SDS011;39866;48.638;-2.020;2024-03-02T14:01:30;4.50;;;4.10;;
53959;SDS011;39866;48.638;-2.020;2024-03-02T14:03:56;5.53;;;4.55;;
53959;SDS011;39866;48.638;-2.020;2024-03-02T14:06:21;4.95;;;3.95;;
53959;SDS011;39866;48.638;-2.020;2024-03-02T14:08:46;5.65;;;4.70;;
53959;SDS011;39866;48.638;-2.020;2024-03-02T14:11:13;7.80;;;5.05;;
53959;SDS011;39866;48.638;-2.020;2024-03-02T14:13:40;7.75;;;4.72;;
53959;SDS011;39866;48.638;-2.020;2024-03-02T14:16:06;5.22;;;4.55;;
53959;SDS011;39866;48.638;-2.020;2024-03-02T14:18:31;4.55;;;4.15;;
53959;SDS011;39866;48.638;-2.020;2024-03-02T14:20:57;6.90;;;4.85;;
53959;SDS011;39866;48.638;-2.020;2024-03-02T14:23:22;6.25;;;4.15;;
53959;SDS011;39866;48.638;-2.020;2024-03-02T14:25:47;5.55;;;4.45;;
53959;SDS011;39866;48.638;-2.020;2024-03-02T14:28:13;6.38;;;4.47;;
53959;SDS011;39866;48.638;-2.020;2024-03-02T14:30:38;4.78;;;3.90;;
53959;SDS011;39866;48.638;-2.020;2024-03-02T14:33:04;5.05;;;4.60;;
53959;SDS011;39866;48.638;-2.020;2024-03-02T14:35:29;5.40;;;3.88;;
53959;SDS011;39866;48.638;-2.020;2024-03-02T14:37:55;5.05;;;4.00;;
53959;SDS011;39866;48.638;-2.020;2024-03-02T14:40:22;5.10;;;3.50;;